メインページ
METAR-TAF:

METAR-TAF

空港 :

昆明長水国際空港

昆明, 中華人民共和国

緯度: 25-01N, 経度: 102-41E, 海抜: 1892m

現時点の気象観測

当レポートは41分前の23:00(UTC)に作成
南西の風 10kt
気温 16°C
湿度 94%
気圧 1019 hPa
視程10km以上
高度2000ftの雲は散在している
高度4000ftの曇り

METAR: ZPPP 242300Z 22005MPS 9999 SCT020 OVC040 16/15 Q1019 NOSIG

時間: 07:41 (23:41 UTC)

予報

当レポートは4時間33分前の19:08(UTC)に作成
予報は25日の 00時(UTC)から 25日の 24時(UTC)まで有効
南西の風 8kt
視程10km以上
高度2000ftの雲は散在している

TAF: ZPPP 241908Z 2500/2524 22004MPS 9999 SCT020 TX23/2508Z TN14/2523Z

4,000以上の空港の気象観測と天気予報(METAR報とTAF報)

利用可能な観測所は地図上に黄色い丸と赤い丸で示す。

丸の上にカーソルを重ねると観測所名を参照できる。

次にクリックすると気象観測と天気予報を参照できる。

マップの切り替え:黒色「×」印の緑ボタンをクリックして拡大、「-」印の緑ボタンをクリックして縮小、緑色の三角印をクリックして隣りの地図に切り替え


METAR-TAF: